Terminal Aerodrome Forecast
Issued by NWS San Angelo, TX

Home | Current Version | Previous Version | Text Only | Print | Product List | Glossary On
Versions: 1 2 3 4 5 6 7 8 9 10 11 12 13 14 15 16 17 18 19 20 21 22 23
000
FTUS44 KSJT 242300
TAFSJT
TAF
KSJT 242326Z 2500/2524 17006KT P6SM SKC
     FM250800 17006KT P6SM OVC045
     FM251000 16007G14KT P6SM OVC025 PROB30 2510/2516 6SM -TSRA BR
      BKN025CB
     FM251600 21012G18KT P6SM BKN050
      TEMPO 2516/2520 P6SM -TSRA BKN050CB
     FM252000 24011KT P6SM SKC=

USA.gov is the U.S. government's official web portal to all federal, state and local government web resources and services.